sensor_id;sensor_type;location;lat;lon;timestamp;P1;durP1;ratioP1;P2;durP2;ratioP2
8538;SDS011;4307;53.868;11.680;2024-01-30T00:00:50;7.73;;;3.23;;
8538;SDS011;4307;53.868;11.680;2024-01-30T00:03:17;6.07;;;3.70;;
8538;SDS011;4307;53.868;11.680;2024-01-30T00:05:44;5.30;;;3.17;;
8538;SDS011;4307;53.868;11.680;2024-01-30T00:08:11;6.60;;;3.77;;
8538;SDS011;4307;53.868;11.680;2024-01-30T00:10:37;4.43;;;3.37;;
8538;SDS011;4307;53.868;11.680;2024-01-30T00:13:05;4.67;;;3.30;;
8538;SDS011;4307;53.868;11.680;2024-01-30T00:15:32;6.13;;;3.47;;
8538;SDS011;4307;53.868;11.680;2024-01-30T00:17:59;4.03;;;3.63;;
8538;SDS011;4307;53.868;11.680;2024-01-30T00:20:26;6.20;;;3.87;;
8538;SDS011;4307;53.868;11.680;2024-01-30T00:22:52;5.27;;;3.33;;
8538;SDS011;4307;53.868;11.680;2024-01-30T00:25:19;7.27;;;3.47;;
8538;SDS011;4307;53.868;11.680;2024-01-30T00:27:46;4.10;;;3.60;;
8538;SDS011;4307;53.868;11.680;2024-01-30T00:30:14;5.07;;;3.53;;
8538;SDS011;4307;53.868;11.680;2024-01-30T00:32:41;4.93;;;3.83;;
8538;SDS011;4307;53.868;11.680;2024-01-30T00:35:07;5.43;;;3.13;;
8538;SDS011;4307;53.868;11.680;2024-01-30T00:37:35;5.17;;;3.33;;
8538;SDS011;4307;53.868;11.680;2024-01-30T00:40:02;7.10;;;3.90;;
8538;SDS011;4307;53.868;11.680;2024-01-30T00:42:31;5.07;;;3.83;;
8538;SDS011;4307;53.868;11.680;2024-01-30T00:44:57;5.37;;;3.30;;
8538;SDS011;4307;53.868;11.680;2024-01-30T00:47:26;4.07;;;3.27;;
8538;SDS011;4307;53.868;11.680;2024-01-30T00:49:54;4.07;;;3.20;;
8538;SDS011;4307;53.868;11.680;2024-01-30T00:52:20;3.57;;;3.27;;
8538;SDS011;4307;53.868;11.680;2024-01-30T00:54:47;4.30;;;3.37;;
8538;SDS011;4307;53.868;11.680;2024-01-30T00:57:14;3.93;;;3.13;;
8538;SDS011;4307;53.868;11.680;2024-01-30T00:59:41;4.07;;;3.40;;
8538;SDS011;4307;53.868;11.680;2024-01-30T01:02:08;4.63;;;3.07;;
8538;SDS011;4307;53.868;11.680;2024-01-30T01:04:36;6.10;;;3.23;;
8538;SDS011;4307;53.868;11.680;2024-01-30T01:07:03;4.07;;;3.63;;
8538;SDS011;4307;53.868;11.680;2024-01-30T01:09:30;8.33;;;3.60;;
8538;SDS011;4307;53.868;11.680;2024-01-30T01:11:56;4.40;;;3.47;;
8538;SDS011;4307;53.868;11.680;2024-01-30T01:14:23;6.67;;;3.57;;
8538;SDS011;4307;53.868;11.680;2024-01-30T01:16:50;6.43;;;3.63;;
8538;SDS011;4307;53.868;11.680;2024-01-30T01:19:17;5.17;;;3.33;;
8538;SDS011;4307;53.868;11.680;2024-01-30T01:21:45;7.83;;;3.50;;
8538;SDS011;4307;53.868;11.680;2024-01-30T01:24:11;4.53;;;3.70;;
8538;SDS011;4307;53.868;11.680;2024-01-30T01:26:38;4.13;;;3.73;;
8538;SDS011;4307;53.868;11.680;2024-01-30T01:29:05;4.57;;;3.50;;
8538;SDS011;4307;53.868;11.680;2024-01-30T01:31:35;6.87;;;3.80;;
8538;SDS011;4307;53.868;11.680;2024-01-30T01:34:05;3.60;;;3.27;;
8538;SDS011;4307;53.868;11.680;2024-01-30T01:36:31;4.47;;;3.20;;
8538;SDS011;4307;53.868;11.680;2024-01-30T01:38:59;5.70;;;3.53;;
8538;SDS011;4307;53.868;11.680;2024-01-30T01:41:29;4.10;;;3.17;;
8538;SDS011;4307;53.868;11.680;2024-01-30T01:43:56;4.13;;;3.40;;
8538;SDS011;4307;53.868;11.680;2024-01-30T01:46:23;7.07;;;3.50;;
8538;SDS011;4307;53.868;11.680;2024-01-30T01:48:52;4.13;;;3.10;;
8538;SDS011;4307;53.868;11.680;2024-01-30T01:51:19;3.97;;;3.17;;
8538;SDS011;4307;53.868;11.680;2024-01-30T01:53:46;6.63;;;4.13;;
8538;SDS011;4307;53.868;11.680;2024-01-30T01:56:14;3.63;;;3.17;;
8538;SDS011;4307;53.868;11.680;2024-01-30T01:58:41;4.23;;;3.43;;
8538;SDS011;4307;53.868;11.680;2024-01-30T02:01:10;4.50;;;3.43;;
8538;SDS011;4307;53.868;11.680;2024-01-30T02:03:38;3.97;;;3.37;;
8538;SDS011;4307;53.868;11.680;2024-01-30T02:06:05;7.77;;;3.30;;
8538;SDS011;4307;53.868;11.680;2024-01-30T02:08:32;4.90;;;3.07;;
8538;SDS011;4307;53.868;11.680;2024-01-30T02:10:59;3.40;;;2.97;;
8538;SDS011;4307;53.868;11.680;2024-01-30T02:13:28;6.53;;;3.77;;
8538;SDS011;4307;53.868;11.680;2024-01-30T02:15:54;6.83;;;3.43;;
8538;SDS011;4307;53.868;11.680;2024-01-30T02:18:22;4.90;;;3.50;;
8538;SDS011;4307;53.868;11.680;2024-01-30T02:20:49;3.70;;;3.30;;
8538;SDS011;4307;53.868;11.680;2024-01-30T02:23:20;5.13;;;3.70;;
8538;SDS011;4307;53.868;11.680;2024-01-30T02:25:49;5.47;;;3.43;;
8538;SDS011;4307;53.868;11.680;2024-01-30T02:28:18;4.23;;;3.67;;
8538;SDS011;4307;53.868;11.680;2024-01-30T02:30:46;6.27;;;3.33;;
8538;SDS011;4307;53.868;11.680;2024-01-30T02:33:13;4.50;;;3.30;;
8538;SDS011;4307;53.868;11.680;2024-01-30T02:35:39;4.20;;;3.40;;
8538;SDS011;4307;53.868;11.680;2024-01-30T02:38:06;7.93;;;3.63;;
8538;SDS011;4307;53.868;11.680;2024-01-30T02:40:34;7.47;;;4.03;;
8538;SDS011;4307;53.868;11.680;2024-01-30T02:43:01;6.10;;;3.93;;
8538;SDS011;4307;53.868;11.680;2024-01-30T02:45:28;5.27;;;3.50;;
8538;SDS011;4307;53.868;11.680;2024-01-30T02:47:55;4.20;;;3.50;;
8538;SDS011;4307;53.868;11.680;2024-01-30T02:50:22;4.13;;;3.33;;
8538;SDS011;4307;53.868;11.680;2024-01-30T02:52:48;5.83;;;3.67;;
8538;SDS011;4307;53.868;11.680;2024-01-30T02:55:15;5.30;;;3.60;;
8538;SDS011;4307;53.868;11.680;2024-01-30T02:57:44;5.50;;;3.63;;
8538;SDS011;4307;53.868;11.680;2024-01-30T03:00:11;6.40;;;3.67;;
8538;SDS011;4307;53.868;11.680;2024-01-30T03:02:39;7.33;;;3.60;;
8538;SDS011;4307;53.868;11.680;2024-01-30T03:05:06;5.47;;;3.60;;
8538;SDS011;4307;53.868;11.680;2024-01-30T03:07:33;4.10;;;3.53;;
8538;SDS011;4307;53.868;11.680;2024-01-30T03:10:00;6.40;;;3.90;;
8538;SDS011;4307;53.868;11.680;2024-01-30T03:12:27;5.30;;;3.73;;
8538;SDS011;4307;53.868;11.680;2024-01-30T03:14:55;6.47;;;3.90;;
8538;SDS011;4307;53.868;11.680;2024-01-30T03:17:22;5.50;;;3.47;;
8538;SDS011;4307;53.868;11.680;2024-01-30T03:19:49;5.87;;;3.27;;
8538;SDS011;4307;53.868;11.680;2024-01-30T03:22:15;5.00;;;3.30;;
8538;SDS011;4307;53.868;11.680;2024-01-30T03:24:42;8.40;;;4.03;;
8538;SDS011;4307;53.868;11.680;2024-01-30T03:27:09;4.83;;;3.90;;
8538;SDS011;4307;53.868;11.680;2024-01-30T03:29:37;4.30;;;3.47;;
8538;SDS011;4307;53.868;11.680;2024-01-30T03:32:05;5.07;;;3.70;;
8538;SDS011;4307;53.868;11.680;2024-01-30T03:34:32;4.90;;;3.97;;
8538;SDS011;4307;53.868;11.680;2024-01-30T03:36:59;4.87;;;3.70;;
8538;SDS011;4307;53.868;11.680;2024-01-30T03:39:25;5.10;;;3.50;;
8538;SDS011;4307;53.868;11.680;2024-01-30T03:41:52;5.87;;;4.20;;
8538;SDS011;4307;53.868;11.680;2024-01-30T03:44:19;6.73;;;4.03;;
8538;SDS011;4307;53.868;11.680;2024-01-30T03:46:45;5.73;;;4.27;;
8538;SDS011;4307;53.868;11.680;2024-01-30T03:49:13;4.33;;;3.87;;
8538;SDS011;4307;53.868;11.680;2024-01-30T03:51:40;5.37;;;4.40;;
8538;SDS011;4307;53.868;11.680;2024-01-30T03:54:07;5.17;;;4.03;;
8538;SDS011;4307;53.868;11.680;2024-01-30T03:56:33;4.93;;;4.10;;
8538;SDS011;4307;53.868;11.680;2024-01-30T03:59:00;6.63;;;4.47;;
8538;SDS011;4307;53.868;11.680;2024-01-30T04:01:27;6.40;;;3.97;;
8538;SDS011;4307;53.868;11.680;2024-01-30T04:03:54;5.90;;;4.37;;
8538;SDS011;4307;53.868;11.680;2024-01-30T04:06:22;6.73;;;4.00;;
8538;SDS011;4307;53.868;11.680;2024-01-30T04:08:49;4.40;;;4.00;;
8538;SDS011;4307;53.868;11.680;2024-01-30T04:11:17;7.20;;;4.00;;
8538;SDS011;4307;53.868;11.680;2024-01-30T04:13:44;8.10;;;4.73;;
8538;SDS011;4307;53.868;11.680;2024-01-30T04:16:18;6.23;;;4.13;;
8538;SDS011;4307;53.868;11.680;2024-01-30T04:18:45;5.80;;;4.33;;
8538;SDS011;4307;53.868;11.680;2024-01-30T04:21:12;8.27;;;4.27;;
8538;SDS011;4307;53.868;11.680;2024-01-30T04:23:40;4.73;;;4.03;;
8538;SDS011;4307;53.868;11.680;2024-01-30T04:26:07;5.17;;;3.70;;
8538;SDS011;4307;53.868;11.680;2024-01-30T04:28:33;4.33;;;3.93;;
8538;SDS011;4307;53.868;11.680;2024-01-30T04:31:02;8.00;;;4.00;;
8538;SDS011;4307;53.868;11.680;2024-01-30T04:33:29;6.13;;;4.13;;
8538;SDS011;4307;53.868;11.680;2024-01-30T04:35:56;6.63;;;3.90;;
8538;SDS011;4307;53.868;11.680;2024-01-30T04:38:23;6.13;;;3.70;;
8538;SDS011;4307;53.868;11.680;2024-01-30T04:40:51;6.70;;;4.20;;
8538;SDS011;4307;53.868;11.680;2024-01-30T04:43:18;4.90;;;3.70;;
8538;SDS011;4307;53.868;11.680;2024-01-30T04:45:45;4.70;;;4.10;;
8538;SDS011;4307;53.868;11.680;2024-01-30T04:48:11;4.73;;;3.90;;
8538;SDS011;4307;53.868;11.680;2024-01-30T04:50:38;6.97;;;4.20;;
8538;SDS011;4307;53.868;11.680;2024-01-30T04:53:05;7.00;;;4.10;;
8538;SDS011;4307;53.868;11.680;2024-01-30T04:55:32;4.37;;;3.97;;
8538;SDS011;4307;53.868;11.680;2024-01-30T04:58:00;6.53;;;4.03;;
8538;SDS011;4307;53.868;11.680;2024-01-30T05:00:27;5.43;;;3.80;;
8538;SDS011;4307;53.868;11.680;2024-01-30T05:02:54;8.60;;;4.17;;
8538;SDS011;4307;53.868;11.680;2024-01-30T05:05:21;6.13;;;3.90;;
8538;SDS011;4307;53.868;11.680;2024-01-30T05:07:48;5.13;;;4.07;;
8538;SDS011;4307;53.868;11.680;2024-01-30T05:10:14;7.50;;;4.07;;
8538;SDS011;4307;53.868;11.680;2024-01-30T05:12:41;8.17;;;5.03;;
8538;SDS011;4307;53.868;11.680;2024-01-30T05:15:09;6.50;;;4.80;;
8538;SDS011;4307;53.868;11.680;2024-01-30T05:17:36;9.57;;;5.40;;
8538;SDS011;4307;53.868;11.680;2024-01-30T05:20:04;8.77;;;5.63;;
8538;SDS011;4307;53.868;11.680;2024-01-30T05:22:32;9.63;;;6.03;;
8538;SDS011;4307;53.868;11.680;2024-01-30T05:24:59;7.57;;;5.90;;
8538;SDS011;4307;53.868;11.680;2024-01-30T05:27:25;11.03;;;5.83;;
8538;SDS011;4307;53.868;11.680;2024-01-30T05:29:52;9.60;;;5.77;;
8538;SDS011;4307;53.868;11.680;2024-01-30T05:32:20;6.63;;;5.23;;
8538;SDS011;4307;53.868;11.680;2024-01-30T05:34:47;10.83;;;6.60;;
8538;SDS011;4307;53.868;11.680;2024-01-30T05:37:15;10.17;;;6.47;;
8538;SDS011;4307;53.868;11.680;2024-01-30T05:39:42;9.50;;;5.27;;
8538;SDS011;4307;53.868;11.680;2024-01-30T05:42:09;9.00;;;5.87;;
8538;SDS011;4307;53.868;11.680;2024-01-30T05:44:36;9.13;;;6.23;;
8538;SDS011;4307;53.868;11.680;2024-01-30T05:47:03;8.43;;;6.97;;
8538;SDS011;4307;53.868;11.680;2024-01-30T05:49:31;7.97;;;5.80;;
8538;SDS011;4307;53.868;11.680;2024-01-30T05:51:57;9.70;;;5.73;;
8538;SDS011;4307;53.868;11.680;2024-01-30T05:54:24;10.90;;;6.20;;
8538;SDS011;4307;53.868;11.680;2024-01-30T05:56:50;10.53;;;6.67;;
8538;SDS011;4307;53.868;11.680;2024-01-30T05:59:17;10.67;;;6.50;;
8538;SDS011;4307;53.868;11.680;2024-01-30T06:01:45;9.27;;;6.47;;
8538;SDS011;4307;53.868;11.680;2024-01-30T06:04:12;10.00;;;6.30;;
8538;SDS011;4307;53.868;11.680;2024-01-30T06:06:41;12.27;;;6.03;;
8538;SDS011;4307;53.868;11.680;2024-01-30T06:09:08;12.77;;;6.37;;
8538;SDS011;4307;53.868;11.680;2024-01-30T06:11:34;9.07;;;6.60;;
8538;SDS011;4307;53.868;11.680;2024-01-30T06:14:01;9.73;;;6.97;;
8538;SDS011;4307;53.868;11.680;2024-01-30T06:16:28;11.30;;;6.80;;
8538;SDS011;4307;53.868;11.680;2024-01-30T06:18:55;11.70;;;6.90;;
8538;SDS011;4307;53.868;11.680;2024-01-30T06:21:23;14.13;;;7.20;;
8538;SDS011;4307;53.868;11.680;2024-01-30T06:23:51;7.47;;;6.47;;
8538;SDS011;4307;53.868;11.680;2024-01-30T06:26:17;8.03;;;6.63;;
8538;SDS011;4307;53.868;11.680;2024-01-30T06:28:44;10.33;;;6.90;;
8538;SDS011;4307;53.868;11.680;2024-01-30T06:31:11;11.17;;;6.77;;
8538;SDS011;4307;53.868;11.680;2024-01-30T06:33:37;12.50;;;7.40;;
8538;SDS011;4307;53.868;11.680;2024-01-30T06:36:04;12.07;;;7.03;;
8538;SDS011;4307;53.868;11.680;2024-01-30T06:38:31;11.17;;;7.07;;
8538;SDS011;4307;53.868;11.680;2024-01-30T06:40:59;11.60;;;6.73;;
8538;SDS011;4307;53.868;11.680;2024-01-30T06:43:25;10.40;;;6.83;;
8538;SDS011;4307;53.868;11.680;2024-01-30T06:45:52;12.87;;;7.40;;
8538;SDS011;4307;53.868;11.680;2024-01-30T06:48:19;12.03;;;7.17;;
8538;SDS011;4307;53.868;11.680;2024-01-30T06:50:45;11.77;;;7.17;;
8538;SDS011;4307;53.868;11.680;2024-01-30T06:53:14;11.83;;;7.23;;
8538;SDS011;4307;53.868;11.680;2024-01-30T06:55:41;12.33;;;8.10;;
8538;SDS011;4307;53.868;11.680;2024-01-30T06:58:09;12.10;;;7.63;;
8538;SDS011;4307;53.868;11.680;2024-01-30T07:00:35;11.07;;;6.20;;
8538;SDS011;4307;53.868;11.680;2024-01-30T07:03:02;12.17;;;7.83;;
8538;SDS011;4307;53.868;11.680;2024-01-30T07:05:29;11.63;;;7.03;;
8538;SDS011;4307;53.868;11.680;2024-01-30T07:07:56;12.00;;;7.57;;
8538;SDS011;4307;53.868;11.680;2024-01-30T07:10:22;10.83;;;7.60;;
8538;SDS011;4307;53.868;11.680;2024-01-30T07:12:49;11.17;;;7.07;;
8538;SDS011;4307;53.868;11.680;2024-01-30T07:15:17;10.50;;;7.07;;
8538;SDS011;4307;53.868;11.680;2024-01-30T07:17:45;9.27;;;6.60;;
8538;SDS011;4307;53.868;11.680;2024-01-30T07:20:12;10.83;;;7.03;;
8538;SDS011;4307;53.868;11.680;2024-01-30T07:22:39;11.57;;;7.23;;
8538;SDS011;4307;53.868;11.680;2024-01-30T07:25:06;11.37;;;7.60;;
8538;SDS011;4307;53.868;11.680;2024-01-30T07:27:34;13.70;;;7.37;;
8538;SDS011;4307;53.868;11.680;2024-01-30T07:30:01;11.60;;;6.93;;
8538;SDS011;4307;53.868;11.680;2024-01-30T07:32:29;10.43;;;7.47;;
8538;SDS011;4307;53.868;11.680;2024-01-30T07:34:56;10.00;;;6.60;;
8538;SDS011;4307;53.868;11.680;2024-01-30T07:37:23;9.83;;;7.20;;
8538;SDS011;4307;53.868;11.680;2024-01-30T07:39:50;10.93;;;7.50;;
8538;SDS011;4307;53.868;11.680;2024-01-30T07:42:17;13.60;;;7.53;;
8538;SDS011;4307;53.868;11.680;2024-01-30T07:44:44;12.30;;;7.80;;
8538;SDS011;4307;53.868;11.680;2024-01-30T07:47:11;9.30;;;7.27;;
8538;SDS011;4307;53.868;11.680;2024-01-30T07:49:39;18.33;;;7.77;;
8538;SDS011;4307;53.868;11.680;2024-01-30T07:52:05;11.77;;;8.40;;
8538;SDS011;4307;53.868;11.680;2024-01-30T07:54:32;12.07;;;7.77;;
8538;SDS011;4307;53.868;11.680;2024-01-30T07:56:59;12.90;;;8.53;;
8538;SDS011;4307;53.868;11.680;2024-01-30T07:59:27;15.67;;;8.43;;
8538;SDS011;4307;53.868;11.680;2024-01-30T08:01:53;16.70;;;9.80;;
8538;SDS011;4307;53.868;11.680;2024-01-30T08:04:20;11.03;;;7.77;;
8538;SDS011;4307;53.868;11.680;2024-01-30T08:06:48;13.90;;;8.47;;
8538;SDS011;4307;53.868;11.680;2024-01-30T08:09:15;13.00;;;8.17;;
8538;SDS011;4307;53.868;11.680;2024-01-30T08:11:41;13.37;;;7.63;;
8538;SDS011;4307;53.868;11.680;2024-01-30T08:14:08;13.20;;;8.33;;
8538;SDS011;4307;53.868;11.680;2024-01-30T08:16:35;10.97;;;7.73;;
8538;SDS011;4307;53.868;11.680;2024-01-30T08:19:01;13.07;;;7.73;;
8538;SDS011;4307;53.868;11.680;2024-01-30T08:21:28;13.40;;;8.23;;
8538;SDS011;4307;53.868;11.680;2024-01-30T08:23:56;13.83;;;9.13;;
8538;SDS011;4307;53.868;11.680;2024-01-30T08:26:23;13.47;;;8.70;;
8538;SDS011;4307;53.868;11.680;2024-01-30T08:28:49;13.00;;;7.87;;
8538;SDS011;4307;53.868;11.680;2024-01-30T08:31:18;13.37;;;8.23;;
8538;SDS011;4307;53.868;11.680;2024-01-30T08:33:45;10.90;;;7.77;;
8538;SDS011;4307;53.868;11.680;2024-01-30T08:36:11;11.50;;;7.80;;
8538;SDS011;4307;53.868;11.680;2024-01-30T08:38:38;11.43;;;8.00;;
8538;SDS011;4307;53.868;11.680;2024-01-30T08:41:06;11.30;;;7.70;;
8538;SDS011;4307;53.868;11.680;2024-01-30T08:43:33;11.43;;;8.53;;
8538;SDS011;4307;53.868;11.680;2024-01-30T08:46:01;11.93;;;8.43;;
8538;SDS011;4307;53.868;11.680;2024-01-30T08:48:28;13.00;;;9.37;;
8538;SDS011;4307;53.868;11.680;2024-01-30T08:50:55;13.13;;;8.50;;
8538;SDS011;4307;53.868;11.680;2024-01-30T08:53:21;11.27;;;7.80;;
8538;SDS011;4307;53.868;11.680;2024-01-30T08:55:48;13.87;;;8.67;;
8538;SDS011;4307;53.868;11.680;2024-01-30T08:58:16;14.90;;;8.97;;
8538;SDS011;4307;53.868;11.680;2024-01-30T09:00:44;16.07;;;9.57;;
8538;SDS011;4307;53.868;11.680;2024-01-30T09:03:10;17.13;;;9.27;;
8538;SDS011;4307;53.868;11.680;2024-01-30T09:05:37;13.50;;;8.40;;
8538;SDS011;4307;53.868;11.680;2024-01-30T09:08:04;14.57;;;8.43;;
8538;SDS011;4307;53.868;11.680;2024-01-30T09:10:31;15.50;;;8.60;;
8538;SDS011;4307;53.868;11.680;2024-01-30T09:12:57;17.43;;;9.10;;
8538;SDS011;4307;53.868;11.680;2024-01-30T09:15:25;16.43;;;9.87;;
8538;SDS011;4307;53.868;11.680;2024-01-30T09:17:52;14.47;;;9.20;;
8538;SDS011;4307;53.868;11.680;2024-01-30T09:20:18;16.03;;;9.20;;
8538;SDS011;4307;53.868;11.680;2024-01-30T09:22:47;11.17;;;8.70;;
8538;SDS011;4307;53.868;11.680;2024-01-30T09:25:14;15.27;;;8.83;;
8538;SDS011;4307;53.868;11.680;2024-01-30T09:27:40;11.83;;;8.07;;
8538;SDS011;4307;53.868;11.680;2024-01-30T09:30:07;13.83;;;9.60;;
8538;SDS011;4307;53.868;11.680;2024-01-30T09:32:36;13.23;;;9.07;;
8538;SDS011;4307;53.868;11.680;2024-01-30T09:35:02;12.07;;;8.67;;
8538;SDS011;4307;53.868;11.680;2024-01-30T09:37:29;14.87;;;9.17;;
8538;SDS011;4307;53.868;11.680;2024-01-30T09:39:56;15.50;;;9.17;;
8538;SDS011;4307;53.868;11.680;2024-01-30T09:42:26;13.30;;;8.77;;
8538;SDS011;4307;53.868;11.680;2024-01-30T09:44:59;15.37;;;8.67;;
8538;SDS011;4307;53.868;11.680;2024-01-30T09:47:25;11.53;;;8.60;;
8538;SDS011;4307;53.868;11.680;2024-01-30T09:49:54;14.97;;;9.57;;
8538;SDS011;4307;53.868;11.680;2024-01-30T09:52:23;12.50;;;8.20;;
8538;SDS011;4307;53.868;11.680;2024-01-30T09:54:51;13.57;;;8.57;;
8538;SDS011;4307;53.868;11.680;2024-01-30T09:57:18;14.70;;;8.63;;
8538;SDS011;4307;53.868;11.680;2024-01-30T09:59:46;12.03;;;8.77;;
8538;SDS011;4307;53.868;11.680;2024-01-30T10:02:12;13.17;;;8.97;;
8538;SDS011;4307;53.868;11.680;2024-01-30T10:04:40;13.30;;;8.33;;
8538;SDS011;4307;53.868;11.680;2024-01-30T10:07:09;15.20;;;9.17;;
8538;SDS011;4307;53.868;11.680;2024-01-30T10:09:37;13.83;;;8.47;;
8538;SDS011;4307;53.868;11.680;2024-01-30T10:12:05;13.43;;;8.50;;
8538;SDS011;4307;53.868;11.680;2024-01-30T10:14:33;13.47;;;8.77;;
8538;SDS011;4307;53.868;11.680;2024-01-30T10:17:00;14.07;;;8.77;;
8538;SDS011;4307;53.868;11.680;2024-01-30T10:19:27;13.23;;;8.40;;
8538;SDS011;4307;53.868;11.680;2024-01-30T10:21:54;15.10;;;8.83;;
8538;SDS011;4307;53.868;11.680;2024-01-30T10:24:25;17.37;;;8.60;;
8538;SDS011;4307;53.868;11.680;2024-01-30T10:26:54;13.43;;;8.27;;
8538;SDS011;4307;53.868;11.680;2024-01-30T10:29:21;12.37;;;8.10;;
8538;SDS011;4307;53.868;11.680;2024-01-30T10:31:57;13.17;;;7.97;;
8538;SDS011;4307;53.868;11.680;2024-01-30T10:34:24;13.83;;;7.57;;
8538;SDS011;4307;53.868;11.680;2024-01-30T10:36:51;11.20;;;8.27;;
8538;SDS011;4307;53.868;11.680;2024-01-30T10:39:26;17.30;;;8.70;;
8538;SDS011;4307;53.868;11.680;2024-01-30T10:41:56;11.53;;;7.20;;
8538;SDS011;4307;53.868;11.680;2024-01-30T10:44:25;13.70;;;8.00;;
8538;SDS011;4307;53.868;11.680;2024-01-30T10:46:56;11.97;;;7.80;;
8538;SDS011;4307;53.868;11.680;2024-01-30T10:49:30;10.87;;;7.50;;
8538;SDS011;4307;53.868;11.680;2024-01-30T10:51:58;11.50;;;7.93;;
8538;SDS011;4307;53.868;11.680;2024-01-30T10:54:27;11.10;;;7.90;;
8538;SDS011;4307;53.868;11.680;2024-01-30T10:56:55;12.53;;;9.13;;
8538;SDS011;4307;53.868;11.680;2024-01-30T10:59:23;11.30;;;8.30;;
8538;SDS011;4307;53.868;11.680;2024-01-30T11:01:50;13.23;;;8.10;;
8538;SDS011;4307;53.868;11.680;2024-01-30T11:04:18;11.70;;;7.70;;
8538;SDS011;4307;53.868;11.680;2024-01-30T11:06:45;13.50;;;8.20;;
8538;SDS011;4307;53.868;11.680;2024-01-30T11:09:16;11.73;;;8.20;;
8538;SDS011;4307;53.868;11.680;2024-01-30T11:11:49;11.27;;;8.30;;
8538;SDS011;4307;53.868;11.680;2024-01-30T11:14:16;12.20;;;8.03;;
8538;SDS011;4307;53.868;11.680;2024-01-30T11:16:48;11.00;;;7.77;;
8538;SDS011;4307;53.868;11.680;2024-01-30T11:19:15;9.63;;;7.80;;
8538;SDS011;4307;53.868;11.680;2024-01-30T11:21:48;11.30;;;7.40;;
8538;SDS011;4307;53.868;11.680;2024-01-30T11:24:18;9.40;;;7.07;;
8538;SDS011;4307;53.868;11.680;2024-01-30T11:26:46;11.23;;;7.63;;
8538;SDS011;4307;53.868;11.680;2024-01-30T11:29:16;9.60;;;8.00;;
8538;SDS011;4307;53.868;11.680;2024-01-30T11:31:51;10.57;;;8.03;;
8538;SDS011;4307;53.868;11.680;2024-01-30T11:34:18;12.20;;;7.73;;
8538;SDS011;4307;53.868;11.680;2024-01-30T11:36:46;12.90;;;7.83;;
8538;SDS011;4307;53.868;11.680;2024-01-30T11:39:20;11.10;;;8.00;;
8538;SDS011;4307;53.868;11.680;2024-01-30T11:41:47;9.20;;;7.10;;
8538;SDS011;4307;53.868;11.680;2024-01-30T11:44:17;8.70;;;7.20;;
8538;SDS011;4307;53.868;11.680;2024-01-30T11:46:45;10.90;;;7.00;;
8538;SDS011;4307;53.868;11.680;2024-01-30T11:49:12;11.30;;;7.67;;
8538;SDS011;4307;53.868;11.680;2024-01-30T11:51:38;10.30;;;7.33;;
8538;SDS011;4307;53.868;11.680;2024-01-30T11:54:05;10.70;;;7.50;;
8538;SDS011;4307;53.868;11.680;2024-01-30T11:56:33;8.03;;;6.93;;
8538;SDS011;4307;53.868;11.680;2024-01-30T11:59:02;14.93;;;7.57;;
8538;SDS011;4307;53.868;11.680;2024-01-30T12:01:28;11.13;;;7.40;;
8538;SDS011;4307;53.868;11.680;2024-01-30T12:03:55;12.40;;;7.70;;
8538;SDS011;4307;53.868;11.680;2024-01-30T12:06:22;9.93;;;7.90;;
8538;SDS011;4307;53.868;11.680;2024-01-30T12:11:43;11.20;;;7.83;;
8538;SDS011;4307;53.868;11.680;2024-01-30T12:14:11;10.90;;;7.73;;
8538;SDS011;4307;53.868;11.680;2024-01-30T12:16:38;10.23;;;7.63;;
8538;SDS011;4307;53.868;11.680;2024-01-30T12:19:06;11.40;;;7.53;;
8538;SDS011;4307;53.868;11.680;2024-01-30T12:21:33;9.73;;;7.33;;
8538;SDS011;4307;53.868;11.680;2024-01-30T12:24:01;10.83;;;7.83;;
8538;SDS011;4307;53.868;11.680;2024-01-30T12:26:27;10.47;;;7.37;;
8538;SDS011;4307;53.868;11.680;2024-01-30T12:28:54;11.43;;;7.70;;
8538;SDS011;4307;53.868;11.680;2024-01-30T12:31:26;11.33;;;7.33;;
8538;SDS011;4307;53.868;11.680;2024-01-30T12:33:53;10.80;;;7.30;;
8538;SDS011;4307;53.868;11.680;2024-01-30T12:36:20;13.93;;;8.27;;
8538;SDS011;4307;53.868;11.680;2024-01-30T12:38:47;11.27;;;7.50;;
8538;SDS011;4307;53.868;11.680;2024-01-30T12:41:14;9.90;;;7.23;;
8538;SDS011;4307;53.868;11.680;2024-01-30T12:43:41;10.90;;;7.93;;
8538;SDS011;4307;53.868;11.680;2024-01-30T12:46:08;10.67;;;7.30;;
8538;SDS011;4307;53.868;11.680;2024-01-30T12:48:36;11.70;;;8.37;;
8538;SDS011;4307;53.868;11.680;2024-01-30T12:51:02;11.30;;;7.70;;
8538;SDS011;4307;53.868;11.680;2024-01-30T12:53:30;11.63;;;7.43;;
8538;SDS011;4307;53.868;11.680;2024-01-30T12:55:56;10.57;;;7.23;;
8538;SDS011;4307;53.868;11.680;2024-01-30T12:58:23;9.67;;;7.23;;
8538;SDS011;4307;53.868;11.680;2024-01-30T13:00:50;10.33;;;6.87;;
8538;SDS011;4307;53.868;11.680;2024-01-30T13:03:17;11.60;;;7.30;;
8538;SDS011;4307;53.868;11.680;2024-01-30T13:05:45;10.63;;;7.47;;
8538;SDS011;4307;53.868;11.680;2024-01-30T13:08:12;12.00;;;8.00;;
8538;SDS011;4307;53.868;11.680;2024-01-30T13:10:38;12.17;;;7.67;;
8538;SDS011;4307;53.868;11.680;2024-01-30T13:13:05;12.40;;;7.47;;
8538;SDS011;4307;53.868;11.680;2024-01-30T13:15:32;12.13;;;7.53;;
8538;SDS011;4307;53.868;11.680;2024-01-30T13:17:58;13.13;;;8.20;;
8538;SDS011;4307;53.868;11.680;2024-01-30T13:20:25;11.77;;;7.27;;
8538;SDS011;4307;53.868;11.680;2024-01-30T13:22:53;10.30;;;7.47;;
8538;SDS011;4307;53.868;11.680;2024-01-30T13:25:19;13.90;;;7.60;;
8538;SDS011;4307;53.868;11.680;2024-01-30T13:27:46;12.23;;;8.10;;
8538;SDS011;4307;53.868;11.680;2024-01-30T13:30:13;11.50;;;7.20;;
8538;SDS011;4307;53.868;11.680;2024-01-30T13:32:39;8.97;;;6.87;;
8538;SDS011;4307;53.868;11.680;2024-01-30T13:35:09;10.33;;;7.50;;
8538;SDS011;4307;53.868;11.680;2024-01-30T13:37:36;13.33;;;6.93;;
8538;SDS011;4307;53.868;11.680;2024-01-30T13:40:05;10.67;;;7.13;;
8538;SDS011;4307;53.868;11.680;2024-01-30T13:42:33;9.33;;;6.73;;
8538;SDS011;4307;53.868;11.680;2024-01-30T13:45:00;13.07;;;7.50;;
8538;SDS011;4307;53.868;11.680;2024-01-30T13:47:27;12.33;;;7.50;;
8538;SDS011;4307;53.868;11.680;2024-01-30T13:49:54;9.60;;;7.17;;
8538;SDS011;4307;53.868;11.680;2024-01-30T13:52:20;10.00;;;7.57;;
8538;SDS011;4307;53.868;11.680;2024-01-30T13:54:47;10.80;;;7.80;;
8538;SDS011;4307;53.868;11.680;2024-01-30T13:57:15;11.03;;;7.37;;
8538;SDS011;4307;53.868;11.680;2024-01-30T13:59:42;10.30;;;7.30;;
8538;SDS011;4307;53.868;11.680;2024-01-30T14:02:08;12.13;;;7.50;;
8538;SDS011;4307;53.868;11.680;2024-01-30T14:04:35;13.43;;;7.50;;
8538;SDS011;4307;53.868;11.680;2024-01-30T14:07:02;9.27;;;7.27;;
8538;SDS011;4307;53.868;11.680;2024-01-30T14:09:29;12.17;;;7.07;;
8538;SDS011;4307;53.868;11.680;2024-01-30T14:11:57;10.93;;;7.37;;
8538;SDS011;4307;53.868;11.680;2024-01-30T14:14:25;10.67;;;7.13;;
8538;SDS011;4307;53.868;11.680;2024-01-30T14:16:51;10.70;;;7.20;;
8538;SDS011;4307;53.868;11.680;2024-01-30T14:19:18;11.03;;;7.40;;
8538;SDS011;4307;53.868;11.680;2024-01-30T14:21:44;11.97;;;7.50;;
8538;SDS011;4307;53.868;11.680;2024-01-30T14:24:11;11.50;;;7.97;;
8538;SDS011;4307;53.868;11.680;2024-01-30T14:26:38;13.53;;;8.03;;
8538;SDS011;4307;53.868;11.680;2024-01-30T14:29:04;13.87;;;8.37;;
8538;SDS011;4307;53.868;11.680;2024-01-30T14:31:32;10.73;;;7.27;;
8538;SDS011;4307;53.868;11.680;2024-01-30T14:33:59;10.80;;;7.13;;
8538;SDS011;4307;53.868;11.680;2024-01-30T14:36:26;9.93;;;7.40;;
8538;SDS011;4307;53.868;11.680;2024-01-30T14:38:53;12.03;;;7.67;;
8538;SDS011;4307;53.868;11.680;2024-01-30T14:41:19;15.83;;;8.40;;
8538;SDS011;4307;53.868;11.680;2024-01-30T14:43:46;11.83;;;8.23;;
8538;SDS011;4307;53.868;11.680;2024-01-30T14:46:13;12.47;;;8.03;;
8538;SDS011;4307;53.868;11.680;2024-01-30T14:48:41;12.77;;;8.43;;
8538;SDS011;4307;53.868;11.680;2024-01-30T14:51:08;9.90;;;7.43;;
8538;SDS011;4307;53.868;11.680;2024-01-30T14:53:34;14.10;;;7.67;;
8538;SDS011;4307;53.868;11.680;2024-01-30T14:56:01;10.37;;;7.80;;